sensor_id;sensor_type;location;lat;lon;timestamp;pressure;altitude;pressure_sealevel;temperature;humidity
29169;BME280;16219;42.864;23.360;2024-03-07T00:00:14;95667.97;;;8.59;100.00
29169;BME280;16219;42.864;23.360;2024-03-07T00:02:43;95665.84;;;8.47;100.00
29169;BME280;16219;42.864;23.360;2024-03-07T00:05:10;95653.94;;;8.49;100.00
29169;BME280;16219;42.864;23.360;2024-03-07T00:07:38;95657.59;;;8.40;100.00
29169;BME280;16219;42.864;23.360;2024-03-07T00:10:06;95657.78;;;8.43;100.00
29169;BME280;16219;42.864;23.360;2024-03-07T00:12:34;95653.63;;;8.42;100.00
29169;BME280;16219;42.864;23.360;2024-03-07T00:15:02;95658.28;;;8.45;100.00
29169;BME280;16219;42.864;23.360;2024-03-07T00:17:30;95640.59;;;8.37;100.00
29169;BME280;16219;42.864;23.360;2024-03-07T00:19:57;95653.94;;;8.49;100.00
29169;BME280;16219;42.864;23.360;2024-03-07T00:22:24;95655.53;;;8.50;100.00
29169;BME280;16219;42.864;23.360;2024-03-07T00:24:52;95656.59;;;8.49;100.00
29169;BME280;16219;42.864;23.360;2024-03-07T00:27:19;95657.66;;;8.48;100.00
29169;BME280;16219;42.864;23.360;2024-03-07T00:29:47;95651.31;;;8.49;100.00
29169;BME280;16219;42.864;23.360;2024-03-07T00:32:20;95645.59;;;8.47;100.00
29169;BME280;16219;42.864;23.360;2024-03-07T00:34:47;95649.91;;;8.43;100.00
29169;BME280;16219;42.864;23.360;2024-03-07T00:37:15;95643.88;;;8.43;100.00
29169;BME280;16219;42.864;23.360;2024-03-07T00:39:42;95644.00;;;8.38;100.00
29169;BME280;16219;42.864;23.360;2024-03-07T00:42:09;95643.47;;;8.36;100.00
29169;BME280;16219;42.864;23.360;2024-03-07T00:44:36;95635.22;;;8.42;100.00
29169;BME280;16219;42.864;23.360;2024-03-07T00:47:04;95634.31;;;8.47;100.00
29169;BME280;16219;42.864;23.360;2024-03-07T00:49:32;95640.47;;;8.42;100.00
29169;BME280;16219;42.864;23.360;2024-03-07T00:52:00;95628.88;;;8.43;100.00
29169;BME280;16219;42.864;23.360;2024-03-07T00:54:27;95568.91;;;8.00;100.00
29169;BME280;16219;42.864;23.360;2024-03-07T00:56:54;95628.28;;;8.46;100.00
29169;BME280;16219;42.864;23.360;2024-03-07T00:59:22;95623.63;;;8.43;100.00
29169;BME280;16219;42.864;23.360;2024-03-07T01:01:49;95624.97;;;8.41;100.00
29169;BME280;16219;42.864;23.360;2024-03-07T01:04:16;95614.81;;;8.48;100.00
29169;BME280;16219;42.864;23.360;2024-03-07T01:06:45;95616.81;;;8.42;100.00
29169;BME280;16219;42.864;23.360;2024-03-07T01:09:12;95615.72;;;8.43;100.00
29169;BME280;16219;42.864;23.360;2024-03-07T01:11:42;95615.72;;;8.43;100.00
29169;BME280;16219;42.864;23.360;2024-03-07T01:14:10;95604.00;;;8.27;100.00
29169;BME280;16219;42.864;23.360;2024-03-07T01:16:37;95609.44;;;8.31;100.00
29169;BME280;16219;42.864;23.360;2024-03-07T01:19:04;95610.81;;;8.28;100.00
29169;BME280;16219;42.864;23.360;2024-03-07T01:21:32;95610.47;;;8.21;100.00
29169;BME280;16219;42.864;23.360;2024-03-07T01:24:01;95607.84;;;8.21;100.00
29169;BME280;16219;42.864;23.360;2024-03-07T01:26:28;95608.91;;;8.20;100.00
29169;BME280;16219;42.864;23.360;2024-03-07T01:28:56;95600.94;;;8.11;100.00
29169;BME280;16219;42.864;23.360;2024-03-07T01:31:23;95600.41;;;8.00;100.00
29169;BME280;16219;42.864;23.360;2024-03-07T01:33:51;95603.47;;;8.16;100.00
29169;BME280;16219;42.864;23.360;2024-03-07T01:36:18;95605.66;;;8.23;100.00
29169;BME280;16219;42.864;23.360;2024-03-07T01:38:46;95609.31;;;8.13;100.00
29169;BME280;16219;42.864;23.360;2024-03-07T01:41:14;95613.88;;;8.21;100.00
29169;BME280;16219;42.864;23.360;2024-03-07T01:43:41;95597.19;;;8.26;100.00
29169;BME280;16219;42.864;23.360;2024-03-07T01:46:08;95609.97;;;8.19;100.00
29169;BME280;16219;42.864;23.360;2024-03-07T01:48:36;95616.44;;;8.13;100.00
29169;BME280;16219;42.864;23.360;2024-03-07T01:51:04;95617.72;;;8.24;100.00
29169;BME280;16219;42.864;23.360;2024-03-07T01:53:32;95612.59;;;8.19;100.00
29169;BME280;16219;42.864;23.360;2024-03-07T01:56:02;95604.66;;;8.10;100.00
29169;BME280;16219;42.864;23.360;2024-03-07T01:58:30;95598.31;;;8.11;100.00
29169;BME280;16219;42.864;23.360;2024-03-07T02:00:58;95597.06;;;8.09;100.00
29169;BME280;16219;42.864;23.360;2024-03-07T02:03:25;95595.75;;;7.97;100.00
29169;BME280;16219;42.864;23.360;2024-03-07T02:05:52;95606.03;;;8.08;100.00
29169;BME280;16219;42.864;23.360;2024-03-07T02:08:19;95604.84;;;8.14;100.00
29169;BME280;16219;42.864;23.360;2024-03-07T02:10:46;95600.53;;;8.18;100.00
29169;BME280;16219;42.864;23.360;2024-03-07T02:13:14;95604.19;;;8.08;100.00
29169;BME280;16219;42.864;23.360;2024-03-07T02:15:42;95600.78;;;8.08;100.00
29169;BME280;16219;42.864;23.360;2024-03-07T02:18:10;95601.84;;;8.07;100.00
29169;BME280;16219;42.864;23.360;2024-03-07T02:20:37;95592.19;;;8.16;100.00
29169;BME280;16219;42.864;23.360;2024-03-07T02:23:05;95594.69;;;8.21;100.00
29169;BME280;16219;42.864;23.360;2024-03-07T02:25:32;95601.13;;;8.15;100.00
29169;BME280;16219;42.864;23.360;2024-03-07T02:28:04;95595.34;;;8.04;100.00
29169;BME280;16219;42.864;23.360;2024-03-07T02:30:31;95592.41;;;8.06;100.00
29169;BME280;16219;42.864;23.360;2024-03-07T02:32:58;95601.84;;;8.07;100.00
29169;BME280;16219;42.864;23.360;2024-03-07T02:35:33;95611.88;;;8.05;100.00
29169;BME280;16219;42.864;23.360;2024-03-07T02:38:02;95608.06;;;8.11;100.00
29169;BME280;16219;42.864;23.360;2024-03-07T02:40:30;95615.16;;;8.10;100.00
29169;BME280;16219;42.864;23.360;2024-03-07T02:42:58;95616.56;;;8.08;100.00
29169;BME280;16219;42.864;23.360;2024-03-07T02:45:25;95607.94;;;7.93;100.00
29169;BME280;16219;42.864;23.360;2024-03-07T02:47:52;95627.28;;;7.97;100.00
29169;BME280;16219;42.864;23.360;2024-03-07T02:50:19;95628.59;;;7.86;100.00
29169;BME280;16219;42.864;23.360;2024-03-07T02:52:48;95623.97;;;7.69;100.00
29169;BME280;16219;42.864;23.360;2024-03-07T02:55:15;95632.38;;;7.80;100.00
29169;BME280;16219;42.864;23.360;2024-03-07T02:57:46;95609.81;;;7.79;100.00
29169;BME280;16219;42.864;23.360;2024-03-07T03:00:13;95619.63;;;7.87;100.00
29169;BME280;16219;42.864;23.360;2024-03-07T03:02:46;95622.47;;;7.77;100.00
29169;BME280;16219;42.864;23.360;2024-03-07T03:05:14;95631.59;;;7.80;100.00
29169;BME280;16219;42.864;23.360;2024-03-07T03:07:42;95636.47;;;7.86;100.00
29169;BME280;16219;42.864;23.360;2024-03-07T03:10:10;95638.47;;;7.89;100.00
29169;BME280;16219;42.864;23.360;2024-03-07T03:12:40;95629.44;;;7.95;100.00
29169;BME280;16219;42.864;23.360;2024-03-07T03:15:09;95633.50;;;8.01;100.00
29169;BME280;16219;42.864;23.360;2024-03-07T03:17:37;95628.94;;;7.93;100.00
29169;BME280;16219;42.864;23.360;2024-03-07T03:20:05;95631.41;;;7.76;100.00
29169;BME280;16219;42.864;23.360;2024-03-07T03:22:40;95628.06;;;7.62;100.00
29169;BME280;16219;42.864;23.360;2024-03-07T03:25:09;95646.25;;;7.58;100.00
29169;BME280;16219;42.864;23.360;2024-03-07T03:27:37;95641.56;;;7.69;100.00
29169;BME280;16219;42.864;23.360;2024-03-07T03:30:06;95640.50;;;7.70;100.00
29169;BME280;16219;42.864;23.360;2024-03-07T03:32:40;95642.34;;;7.69;100.00
29169;BME280;16219;42.864;23.360;2024-03-07T03:35:08;95631.75;;;7.61;100.00
29169;BME280;16219;42.864;23.360;2024-03-07T03:37:39;95622.81;;;7.62;100.00
29169;BME280;16219;42.864;23.360;2024-03-07T03:40:08;95636.22;;;7.60;100.00
29169;BME280;16219;42.864;23.360;2024-03-07T03:42:36;95631.34;;;7.67;100.00
29169;BME280;16219;42.864;23.360;2024-03-07T03:45:04;95631.41;;;7.76;100.00
29169;BME280;16219;42.864;23.360;2024-03-07T03:47:33;95629.91;;;7.61;100.00
29169;BME280;16219;42.864;23.360;2024-03-07T03:50:03;95636.13;;;7.65;100.00
29169;BME280;16219;42.864;23.360;2024-03-07T03:52:31;95646.34;;;7.53;100.00
29169;BME280;16219;42.864;23.360;2024-03-07T03:54:58;95640.22;;;7.58;100.00
29169;BME280;16219;42.864;23.360;2024-03-07T03:57:25;95627.38;;;7.70;100.00
29169;BME280;16219;42.864;23.360;2024-03-07T03:59:53;95632.66;;;7.56;100.00
29169;BME280;16219;42.864;23.360;2024-03-07T04:02:20;95630.31;;;7.41;100.00
29169;BME280;16219;42.864;23.360;2024-03-07T04:04:47;95620.03;;;7.31;100.00
29169;BME280;16219;42.864;23.360;2024-03-07T04:07:16;95608.94;;;7.20;100.00
29169;BME280;16219;42.864;23.360;2024-03-07T04:09:43;95611.78;;;7.23;100.00
29169;BME280;16219;42.864;23.360;2024-03-07T04:12:10;95590.78;;;7.10;100.00
29169;BME280;16219;42.864;23.360;2024-03-07T04:14:39;95619.06;;;7.26;100.00
29169;BME280;16219;42.864;23.360;2024-03-07T04:17:06;95617.69;;;7.29;100.00
29169;BME280;16219;42.864;23.360;2024-03-07T04:19:34;95615.53;;;7.17;100.00
29169;BME280;16219;42.864;23.360;2024-03-07T04:22:02;95617.50;;;7.12;100.00
29169;BME280;16219;42.864;23.360;2024-03-07T04:24:31;95617.13;;;7.18;100.00
29169;BME280;16219;42.864;23.360;2024-03-07T04:26:59;95589.53;;;7.07;100.00
29169;BME280;16219;42.864;23.360;2024-03-07T04:29:25;95609.34;;;6.99;100.00
29169;BME280;16219;42.864;23.360;2024-03-07T04:31:53;95604.88;;;7.00;100.00
29169;BME280;16219;42.864;23.360;2024-03-07T04:34:19;95622.38;;;7.18;100.00
29169;BME280;16219;42.864;23.360;2024-03-07T04:36:45;95624.91;;;7.10;100.00
29169;BME280;16219;42.864;23.360;2024-03-07T04:39:12;95630.72;;;7.07;100.00
29169;BME280;16219;42.864;23.360;2024-03-07T04:41:52;95633.59;;;6.91;100.00
29169;BME280;16219;42.864;23.360;2024-03-07T04:44:19;95636.22;;;6.78;100.00
29169;BME280;16219;42.864;23.360;2024-03-07T04:46:48;95630.88;;;6.83;100.00
29169;BME280;16219;42.864;23.360;2024-03-07T04:49:16;95633.13;;;6.75;100.00
29169;BME280;16219;42.864;23.360;2024-03-07T04:51:43;95631.28;;;6.76;100.00
29169;BME280;16219;42.864;23.360;2024-03-07T04:54:10;95635.16;;;6.79;100.00
29169;BME280;16219;42.864;23.360;2024-03-07T04:56:37;95628.94;;;6.74;100.00
29169;BME280;16219;42.864;23.360;2024-03-07T04:59:06;95626.50;;;6.78;100.00
29169;BME280;16219;42.864;23.360;2024-03-07T05:01:33;95638.47;;;6.84;100.00
29169;BME280;16219;42.864;23.360;2024-03-07T05:04:00;95632.25;;;6.94;100.00
29169;BME280;16219;42.864;23.360;2024-03-07T05:06:28;95639.34;;;6.93;100.00
29169;BME280;16219;42.864;23.360;2024-03-07T05:09:00;95639.06;;;6.95;100.00
29169;BME280;16219;42.864;23.360;2024-03-07T05:11:29;95638.84;;;6.91;100.00
29169;BME280;16219;42.864;23.360;2024-03-07T05:13:56;95621.16;;;6.83;100.00
29169;BME280;16219;42.864;23.360;2024-03-07T05:16:24;95641.78;;;6.90;100.00
29169;BME280;16219;42.864;23.360;2024-03-07T05:18:51;95642.56;;;6.90;100.00
29169;BME280;16219;42.864;23.360;2024-03-07T05:21:19;95648.38;;;6.87;100.00
29169;BME280;16219;42.864;23.360;2024-03-07T05:24:03;95652.84;;;6.87;100.00
29169;BME280;16219;42.864;23.360;2024-03-07T05:26:30;95644.00;;;6.83;100.00
29169;BME280;16219;42.864;23.360;2024-03-07T05:29:01;95649.44;;;6.86;100.00
29169;BME280;16219;42.864;23.360;2024-03-07T05:31:32;95649.53;;;6.81;100.00
29169;BME280;16219;42.864;23.360;2024-03-07T05:34:01;95652.44;;;6.80;100.00
29169;BME280;16219;42.864;23.360;2024-03-07T05:36:30;95653.13;;;6.85;100.00
29169;BME280;16219;42.864;23.360;2024-03-07T05:38:58;95622.03;;;6.65;100.00
29169;BME280;16219;42.864;23.360;2024-03-07T05:41:26;95657.31;;;6.86;100.00
29169;BME280;16219;42.864;23.360;2024-03-07T05:43:55;95654.88;;;6.90;100.00
29169;BME280;16219;42.864;23.360;2024-03-07T05:46:21;95661.31;;;6.97;100.00
29169;BME280;16219;42.864;23.360;2024-03-07T05:48:50;95668.41;;;7.11;100.00
29169;BME280;16219;42.864;23.360;2024-03-07T05:51:21;95671.63;;;7.08;100.00
29169;BME280;16219;42.864;23.360;2024-03-07T05:53:48;95664.63;;;7.17;100.00
29169;BME280;16219;42.864;23.360;2024-03-07T05:56:16;95665.38;;;7.04;100.00
29169;BME280;16219;42.864;23.360;2024-03-07T05:58:43;95656.06;;;6.97;100.00
29169;BME280;16219;42.864;23.360;2024-03-07T06:01:10;95670.38;;;7.19;100.00
29169;BME280;16219;42.864;23.360;2024-03-07T06:03:37;95673.75;;;7.19;100.00
29169;BME280;16219;42.864;23.360;2024-03-07T06:06:06;95677.53;;;7.13;100.00
29169;BME280;16219;42.864;23.360;2024-03-07T06:08:37;95670.25;;;7.24;100.00
29169;BME280;16219;42.864;23.360;2024-03-07T06:11:08;95672.50;;;7.31;100.00
29169;BME280;16219;42.864;23.360;2024-03-07T06:13:35;95682.41;;;7.34;100.00
29169;BME280;16219;42.864;23.360;2024-03-07T06:16:03;95689.81;;;7.45;100.00
29169;BME280;16219;42.864;23.360;2024-03-07T06:18:34;95687.75;;;7.42;100.00
29169;BME280;16219;42.864;23.360;2024-03-07T06:21:02;95682.03;;;7.54;100.00
29169;BME280;16219;42.864;23.360;2024-03-07T06:23:32;95675.41;;;7.57;100.00
29169;BME280;16219;42.864;23.360;2024-03-07T06:26:00;95686.88;;;7.61;100.00
29169;BME280;16219;42.864;23.360;2024-03-07T06:28:32;95686.88;;;7.61;100.00
29169;BME280;16219;42.864;23.360;2024-03-07T06:30:59;95696.97;;;7.67;100.00
29169;BME280;16219;42.864;23.360;2024-03-07T06:33:29;95713.53;;;7.54;100.00
29169;BME280;16219;42.864;23.360;2024-03-07T06:35:57;95672.09;;;7.37;100.00
29169;BME280;16219;42.864;23.360;2024-03-07T06:38:24;95684.34;;;7.56;100.00
29169;BME280;16219;42.864;23.360;2024-03-07T06:40:52;95692.06;;;7.52;100.00
29169;BME280;16219;42.864;23.360;2024-03-07T06:43:19;95707.78;;;7.66;100.00
29169;BME280;16219;42.864;23.360;2024-03-07T06:45:46;95645.69;;;7.06;100.00
29169;BME280;16219;42.864;23.360;2024-03-07T06:48:15;95671.72;;;7.30;100.00
29169;BME280;16219;42.864;23.360;2024-03-07T06:50:43;95698.06;;;7.53;100.00
29169;BME280;16219;42.864;23.360;2024-03-07T06:53:10;95698.94;;;7.62;100.00
29169;BME280;16219;42.864;23.360;2024-03-07T06:55:37;95697.38;;;7.47;100.00
29169;BME280;16219;42.864;23.360;2024-03-07T06:58:06;95707.56;;;7.35;100.00
29169;BME280;16219;42.864;23.360;2024-03-07T07:00:33;95708.06;;;7.23;100.00
29169;BME280;16219;42.864;23.360;2024-03-07T07:03:01;95675.28;;;6.93;100.00
29169;BME280;16219;42.864;23.360;2024-03-07T07:05:30;95710.97;;;7.21;100.00
29169;BME280;16219;42.864;23.360;2024-03-07T07:07:59;95692.03;;;7.11;100.00
29169;BME280;16219;42.864;23.360;2024-03-07T07:10:26;95689.81;;;7.18;100.00
29169;BME280;16219;42.864;23.360;2024-03-07T07:12:53;95709.44;;;7.34;100.00
29169;BME280;16219;42.864;23.360;2024-03-07T07:15:22;95688.34;;;7.39;100.00
29169;BME280;16219;42.864;23.360;2024-03-07T07:17:50;95708.78;;;7.56;100.00
29169;BME280;16219;42.864;23.360;2024-03-07T07:20:18;95701.97;;;7.69;100.00
29169;BME280;16219;42.864;23.360;2024-03-07T07:22:46;95704.47;;;7.74;100.00
29169;BME280;16219;42.864;23.360;2024-03-07T07:25:14;95701.16;;;7.82;100.00
29169;BME280;16219;42.864;23.360;2024-03-07T07:27:43;95703.94;;;7.86;100.00
29169;BME280;16219;42.864;23.360;2024-03-07T07:30:12;95688.59;;;7.79;100.00
29169;BME280;16219;42.864;23.360;2024-03-07T07:32:41;95687.41;;;7.85;100.00
29169;BME280;16219;42.864;23.360;2024-03-07T07:35:09;95688.38;;;7.89;100.00
29169;BME280;16219;42.864;23.360;2024-03-07T07:37:38;95702.50;;;7.93;100.00
29169;BME280;16219;42.864;23.360;2024-03-07T07:40:08;95704.91;;;8.04;100.00
29169;BME280;16219;42.864;23.360;2024-03-07T07:42:39;95697.81;;;8.04;100.00
29169;BME280;16219;42.864;23.360;2024-03-07T07:45:09;95695.56;;;7.97;100.00
29169;BME280;16219;42.864;23.360;2024-03-07T07:47:39;95685.13;;;8.06;100.00
29169;BME280;16219;42.864;23.360;2024-03-07T07:50:08;95702.91;;;8.23;100.00
29169;BME280;16219;42.864;23.360;2024-03-07T07:52:41;95700.78;;;8.25;100.00
29169;BME280;16219;42.864;23.360;2024-03-07T07:55:09;95692.03;;;8.16;100.00
29169;BME280;16219;42.864;23.360;2024-03-07T07:57:41;95697.06;;;8.26;100.00
29169;BME280;16219;42.864;23.360;2024-03-07T08:00:11;95690.78;;;8.36;100.00
29169;BME280;16219;42.864;23.360;2024-03-07T08:02:50;95664.31;;;8.32;100.00
29169;BME280;16219;42.864;23.360;2024-03-07T08:05:18;95685.88;;;8.57;100.00
29169;BME280;16219;42.864;23.360;2024-03-07T08:07:45;95682.06;;;8.63;100.00
29169;BME280;16219;42.864;23.360;2024-03-07T08:10:14;95687.72;;;8.56;100.00
29169;BME280;16219;42.864;23.360;2024-03-07T08:12:41;95693.81;;;8.65;100.00
29169;BME280;16219;42.864;23.360;2024-03-07T08:15:09;95666.31;;;8.49;100.00
29169;BME280;16219;42.864;23.360;2024-03-07T08:17:43;95697.72;;;8.68;100.00
29169;BME280;16219;42.864;23.360;2024-03-07T08:20:15;95691.66;;;8.90;100.00
29169;BME280;16219;42.864;23.360;2024-03-07T08:22:44;95693.38;;;8.94;100.00
29169;BME280;16219;42.864;23.360;2024-03-07T08:25:12;95668.06;;;8.76;100.00
29169;BME280;16219;42.864;23.360;2024-03-07T08:27:40;95697.56;;;8.95;100.00
29169;BME280;16219;42.864;23.360;2024-03-07T08:30:09;95703.53;;;9.10;100.00
29169;BME280;16219;42.864;23.360;2024-03-07T08:32:38;95672.63;;;8.93;100.00
29169;BME280;16219;42.864;23.360;2024-03-07T08:35:06;95711.06;;;9.02;100.00
29169;BME280;16219;42.864;23.360;2024-03-07T08:37:37;95715.38;;;8.98;100.00
29169;BME280;16219;42.864;23.360;2024-03-07T08:40:06;95724.22;;;9.02;100.00
29169;BME280;16219;42.864;23.360;2024-03-07T08:42:36;95724.69;;;9.05;100.00
29169;BME280;16219;42.864;23.360;2024-03-07T08:45:05;95731.03;;;9.04;100.00
29169;BME280;16219;42.864;23.360;2024-03-07T08:47:33;95741.56;;;9.04;100.00
29169;BME280;16219;42.864;23.360;2024-03-07T08:50:01;95737.06;;;9.04;100.00
29169;BME280;16219;42.864;23.360;2024-03-07T08:52:31;95742.28;;;8.95;100.00
29169;BME280;16219;42.864;23.360;2024-03-07T08:55:00;95746.84;;;8.81;100.00
29169;BME280;16219;42.864;23.360;2024-03-07T08:57:27;95753.09;;;8.94;100.00
29169;BME280;16219;42.864;23.360;2024-03-07T08:59:54;95756.38;;;8.99;100.00
29169;BME280;16219;42.864;23.360;2024-03-07T09:02:21;95766.63;;;8.79;100.00
29169;BME280;16219;42.864;23.360;2024-03-07T09:04:48;95764.59;;;8.75;100.00
29169;BME280;16219;42.864;23.360;2024-03-07T09:07:15;95777.91;;;8.79;100.00
29169;BME280;16219;42.864;23.360;2024-03-07T09:09:43;95757.31;;;8.72;100.00
29169;BME280;16219;42.864;23.360;2024-03-07T09:12:12;95771.41;;;8.99;100.00
29169;BME280;16219;42.864;23.360;2024-03-07T09:14:39;95776.53;;;9.04;100.00
29169;BME280;16219;42.864;23.360;2024-03-07T09:17:06;95775.94;;;9.07;100.00
29169;BME280;16219;42.864;23.360;2024-03-07T09:19:33;95782.03;;;9.16;100.00
29169;BME280;16219;42.864;23.360;2024-03-07T09:22:00;95775.59;;;9.22;100.00
29169;BME280;16219;42.864;23.360;2024-03-07T09:24:30;95779.44;;;9.25;100.00
29169;BME280;16219;42.864;23.360;2024-03-07T09:26:57;95782.31;;;9.37;100.00
29169;BME280;16219;42.864;23.360;2024-03-07T09:29:26;95779.53;;;9.42;100.00
29169;BME280;16219;42.864;23.360;2024-03-07T09:31:53;95776.31;;;9.45;100.00
29169;BME280;16219;42.864;23.360;2024-03-07T09:34:21;95780.25;;;9.57;100.00
29169;BME280;16219;42.864;23.360;2024-03-07T09:36:48;95772.66;;;9.64;100.00
29169;BME280;16219;42.864;23.360;2024-03-07T09:39:15;95773.34;;;9.78;100.00
29169;BME280;16219;42.864;23.360;2024-03-07T09:41:43;95767.91;;;9.74;100.00
29169;BME280;16219;42.864;23.360;2024-03-07T09:44:13;95774.16;;;9.87;100.00
29169;BME280;16219;42.864;23.360;2024-03-07T09:46:45;95753.84;;;9.88;100.00
29169;BME280;16219;42.864;23.360;2024-03-07T09:49:13;95744.84;;;9.89;100.00
29169;BME280;16219;42.864;23.360;2024-03-07T09:51:40;95770.81;;;10.13;100.00
29169;BME280;16219;42.864;23.360;2024-03-07T09:54:09;95770.97;;;10.16;100.00
29169;BME280;16219;42.864;23.360;2024-03-07T09:56:36;95762.97;;;10.30;100.00
29169;BME280;16219;42.864;23.360;2024-03-07T09:59:09;95751.81;;;10.33;100.00
29169;BME280;16219;42.864;23.360;2024-03-07T10:01:39;95749.78;;;10.39;100.00
29169;BME280;16219;42.864;23.360;2024-03-07T10:04:12;95752.59;;;10.60;100.00
29169;BME280;16219;42.864;23.360;2024-03-07T10:06:40;95747.28;;;10.77;100.00
29169;BME280;16219;42.864;23.360;2024-03-07T10:09:08;95746.84;;;10.66;100.00
29169;BME280;16219;42.864;23.360;2024-03-07T10:11:35;95748.56;;;10.54;100.00
29169;BME280;16219;42.864;23.360;2024-03-07T10:14:03;95744.81;;;10.55;100.00
29169;BME280;16219;42.864;23.360;2024-03-07T10:16:30;95718.75;;;10.44;100.00
29169;BME280;16219;42.864;23.360;2024-03-07T10:18:58;95740.00;;;10.65;100.00
29169;BME280;16219;42.864;23.360;2024-03-07T10:21:28;95742.66;;;10.57;100.00
29169;BME280;16219;42.864;23.360;2024-03-07T10:24:04;95734.88;;;10.69;100.00
29169;BME280;16219;42.864;23.360;2024-03-07T10:26:34;95739.84;;;10.79;100.00
29169;BME280;16219;42.864;23.360;2024-03-07T10:29:01;95736.88;;;10.89;100.00
29169;BME280;16219;42.864;23.360;2024-03-07T10:31:29;95733.00;;;10.87;100.00
29169;BME280;16219;42.864;23.360;2024-03-07T10:33:59;95734.56;;;10.88;100.00
29169;BME280;16219;42.864;23.360;2024-03-07T10:36:30;95724.91;;;11.00;100.00
29169;BME280;16219;42.864;23.360;2024-03-07T10:38:58;95711.88;;;10.95;100.00
29169;BME280;16219;42.864;23.360;2024-03-07T10:41:35;95724.41;;;11.16;100.00
29169;BME280;16219;42.864;23.360;2024-03-07T10:44:04;95719.59;;;11.18;100.00
29169;BME280;16219;42.864;23.360;2024-03-07T10:46:34;95728.59;;;11.17;100.00
29169;BME280;16219;42.864;23.360;2024-03-07T10:49:03;95724.91;;;11.00;100.00
29169;BME280;16219;42.864;23.360;2024-03-07T10:51:40;95719.88;;;11.16;100.00
29169;BME280;16219;42.864;23.360;2024-03-07T10:54:17;95706.50;;;11.30;100.00
29169;BME280;16219;42.864;23.360;2024-03-07T10:56:56;95705.84;;;11.33;100.00
29169;BME280;16219;42.864;23.360;2024-03-07T10:59:31;95713.75;;;11.42;100.00
29169;BME280;16219;42.864;23.360;2024-03-07T11:02:05;95702.78;;;11.31;100.00
29169;BME280;16219;42.864;23.360;2024-03-07T11:04:40;95701.00;;;11.44;100.00
29169;BME280;16219;42.864;23.360;2024-03-07T11:07:08;95701.09;;;11.26;100.00
29169;BME280;16219;42.864;23.360;2024-03-07T11:09:37;95704.94;;;11.29;100.00
29169;BME280;16219;42.864;23.360;2024-03-07T11:12:07;95694.72;;;11.19;100.00
29169;BME280;16219;42.864;23.360;2024-03-07T11:14:36;95692.84;;;11.28;100.00
29169;BME280;16219;42.864;23.360;2024-03-07T11:17:04;95694.81;;;11.40;100.00
29169;BME280;16219;42.864;23.360;2024-03-07T11:19:34;95681.13;;;11.38;100.00
29169;BME280;16219;42.864;23.360;2024-03-07T11:22:04;95698.03;;;11.45;100.00
29169;BME280;16219;42.864;23.360;2024-03-07T11:24:42;95609.09;;;10.90;100.00
29169;BME280;16219;42.864;23.360;2024-03-07T11:27:20;95699.31;;;11.39;100.00
29169;BME280;16219;42.864;23.360;2024-03-07T11:29:48;95657.03;;;11.10;100.00
29169;BME280;16219;42.864;23.360;2024-03-07T11:32:19;95589.63;;;10.65;100.00
29169;BME280;16219;42.864;23.360;2024-03-07T11:35:12;95687.84;;;11.35;100.00
29169;BME280;16219;42.864;23.360;2024-03-07T11:37:42;95691.06;;;11.41;100.00
29169;BME280;16219;42.864;23.360;2024-03-07T11:40:14;95693.69;;;11.49;100.00
29169;BME280;16219;42.864;23.360;2024-03-07T11:43:01;95693.06;;;11.52;100.00
29169;BME280;16219;42.864;23.360;2024-03-07T11:45:31;95675.38;;;11.44;100.00
29169;BME280;16219;42.864;23.360;2024-03-07T11:48:05;95598.06;;;10.97;100.00
29169;BME280;16219;42.864;23.360;2024-03-07T11:50:35;95648.31;;;11.47;100.00
29169;BME280;16219;42.864;23.360;2024-03-07T11:53:04;95679.38;;;11.80;100.00
29169;BME280;16219;42.864;23.360;2024-03-07T11:55:33;95676.59;;;11.76;100.00
29169;BME280;16219;42.864;23.360;2024-03-07T11:58:07;95670.13;;;11.65;100.00
29169;BME280;16219;42.864;23.360;2024-03-07T12:00:34;95671.19;;;11.73;100.00
29169;BME280;16219;42.864;23.360;2024-03-07T12:03:01;95636.84;;;11.43;100.00
29169;BME280;16219;42.864;23.360;2024-03-07T12:05:32;95667.78;;;11.72;100.00
29169;BME280;16219;42.864;23.360;2024-03-07T12:07:59;95670.28;;;11.69;100.00
29169;BME280;16219;42.864;23.360;2024-03-07T12:10:27;95643.38;;;11.37;100.00
29169;BME280;16219;42.864;23.360;2024-03-07T12:12:56;95597.53;;;11.12;100.00
29169;BME280;16219;42.864;23.360;2024-03-07T12:15:24;95664.44;;;11.55;100.00
29169;BME280;16219;42.864;23.360;2024-03-07T12:17:51;95580.75;;;11.08;100.00
29169;BME280;16219;42.864;23.360;2024-03-07T12:20:19;95658.81;;;11.65;100.00
29169;BME280;16219;42.864;23.360;2024-03-07T12:22:56;95662.03;;;11.70;100.00
29169;BME280;16219;42.864;23.360;2024-03-07T12:25:23;95660.63;;;11.73;100.00
29169;BME280;16219;42.864;23.360;2024-03-07T12:30:27;95615.06;;;11.46;100.00
29169;BME280;16219;42.864;23.360;2024-03-07T12:33:01;95578.75;;;11.14;100.00
29169;BME280;16219;42.864;23.360;2024-03-07T12:35:34;95618.03;;;11.45;100.00
29169;BME280;16219;42.864;23.360;2024-03-07T12:41:02;95660.09;;;11.80;100.00
29169;BME280;16219;42.864;23.360;2024-03-07T12:43:32;95657.22;;;11.64;100.00
29169;BME280;16219;42.864;23.360;2024-03-07T12:46:00;95660.78;;;11.68;100.00
29169;BME280;16219;42.864;23.360;2024-03-07T12:48:27;95654.00;;;11.58;100.00
29169;BME280;16219;42.864;23.360;2024-03-07T12:50:55;95661.63;;;11.60;100.00
29169;BME280;16219;42.864;23.360;2024-03-07T12:53:22;95663.16;;;11.61;100.00
29169;BME280;16219;42.864;23.360;2024-03-07T12:55:51;95654.78;;;11.59;100.00
29169;BME280;16219;42.864;23.360;2024-03-07T12:58:19;95574.09;;;10.72;100.00
29169;BME280;16219;42.864;23.360;2024-03-07T13:00:49;95629.81;;;11.18;100.00